createdAt,value
2022-08-19T00:02:55.204Z,101428.75
2022-08-19T00:05:57.381Z,101416.41
2022-08-19T00:08:59.791Z,101410.16
2022-08-19T00:12:02.164Z,101415.38
2022-08-19T00:15:10.412Z,101409.97
2022-08-19T00:18:14.325Z,101412.03
2022-08-19T00:21:16.694Z,101415.75
2022-08-19T00:24:18.767Z,101427.25
2022-08-19T00:27:26.365Z,101428.88
2022-08-19T00:30:29.189Z,101429.28
2022-08-19T00:33:32.547Z,101427.63
2022-08-19T00:36:35.247Z,101416.97
2022-08-19T00:39:37.384Z,101414.50
2022-08-19T00:42:39.946Z,101413.63
2022-08-19T00:45:42.398Z,101408.31
2022-08-19T00:48:44.433Z,101406.47
2022-08-19T00:51:50.683Z,101406.72
2022-08-19T00:54:53.427Z,101412.88
2022-08-19T00:58:03.420Z,101415.66
2022-08-19T01:01:05.614Z,101415.84
2022-08-19T01:04:08.034Z,101421.28
2022-08-19T01:07:10.089Z,101421.41
2022-08-19T01:10:20.405Z,101430.06
2022-08-19T01:13:26.521Z,101428.34
2022-08-19T01:16:30.773Z,101425.97
2022-08-19T01:19:44.192Z,101429.56
2022-08-19T01:22:53.745Z,101438.47
2022-08-19T01:25:55.956Z,101427.06
2022-08-19T01:29:01.233Z,101425.34
2022-08-19T01:32:03.633Z,101421.75
2022-08-19T01:35:07.166Z,101430.44
2022-08-19T01:38:19.667Z,101430.06
2022-08-19T01:41:21.737Z,101419.25
2022-08-19T01:44:23.801Z,101431.28
2022-08-19T01:47:25.857Z,101432.84
2022-08-19T01:50:27.976Z,101434.56
2022-08-19T01:53:30.632Z,101430.84
2022-08-19T01:56:36.438Z,101432.69
2022-08-19T01:59:40.141Z,101431.75
2022-08-19T02:02:44.219Z,101427.69
2022-08-19T02:05:46.395Z,101426.16
2022-08-19T02:08:48.418Z,101425.16
2022-08-19T02:11:53.314Z,101425.16
2022-08-19T02:14:55.365Z,101424.56
2022-08-19T02:17:57.412Z,101419.31
2022-08-19T02:20:59.404Z,101423.06
2022-08-19T02:24:01.611Z,101424.78
2022-08-19T02:27:03.721Z,101422.25
2022-08-19T02:30:08.796Z,101420.44
2022-08-19T02:33:16.765Z,101415.72
2022-08-19T02:36:20.795Z,101419.22
2022-08-19T02:39:23.390Z,101420.13
2022-08-19T02:42:25.991Z,101416.38
2022-08-19T02:45:28.025Z,101411.22
2022-08-19T02:48:30.460Z,101404.22
2022-08-19T02:51:38.300Z,101401.69
2022-08-19T02:54:40.292Z,101400.22
2022-08-19T02:57:42.309Z,101401.88
2022-08-19T03:00:50.078Z,101392.09
2022-08-19T03:03:53.929Z,101396.56
2022-08-19T03:06:58.509Z,101398.78
2022-08-19T03:10:05.377Z,101396.44
2022-08-19T03:13:07.321Z,101398.91
2022-08-19T03:16:10.011Z,101407.19
2022-08-19T03:19:12.742Z,101392.13
2022-08-19T03:22:14.789Z,101394.66
2022-08-19T03:25:16.860Z,101389.50
2022-08-19T03:28:19.016Z,101389.56
2022-08-19T03:31:44.253Z,101381.41
2022-08-19T03:34:45.108Z,101373.69
2022-08-19T03:37:47.118Z,101376.38
2022-08-19T03:40:49.136Z,101377.69
2022-08-19T03:43:53.074Z,101393.34
2022-08-19T03:46:58.812Z,101385.19
2022-08-19T03:50:00.886Z,101385.59
2022-08-19T03:53:02.907Z,101384.28
2022-08-19T03:56:05.087Z,101393.22
2022-08-19T03:59:09.717Z,101387.88
2022-08-19T04:02:13.691Z,101386.41
2022-08-19T04:05:15.738Z,101388.28
2022-08-19T04:08:18.052Z,101391.53
2022-08-19T04:11:23.083Z,101398.78
2022-08-19T04:14:45.073Z,101396.81
2022-08-19T04:17:47.204Z,101391.53
2022-08-19T04:20:49.217Z,101398.38
2022-08-19T04:23:51.753Z,101398.38
2022-08-19T04:26:54.063Z,101393.97
2022-08-19T04:29:56.094Z,101399.22
2022-08-19T04:32:58.145Z,101399.91
2022-08-19T04:36:00.174Z,101401.41
2022-08-19T04:39:07.253Z,101398.56
2022-08-19T04:42:09.286Z,101395.69
2022-08-19T04:45:14.404Z,101409.69
2022-08-19T04:48:26.174Z,101406.09
2022-08-19T04:51:29.540Z,101402.59
2022-08-19T04:54:38.251Z,101411.56
2022-08-19T04:57:41.376Z,101403.56
2022-08-19T05:00:43.450Z,101417.03
2022-08-19T05:03:45.608Z,101418.38
2022-08-19T05:06:49.200Z,101423.44
2022-08-19T05:09:57.117Z,101422.81
2022-08-19T05:13:01.030Z,101431.91
2022-08-19T05:16:03.206Z,101424.19
2022-08-19T05:19:05.249Z,101423.81
2022-08-19T05:22:07.268Z,101419.22
2022-08-19T05:25:13.716Z,101420.69
2022-08-19T05:28:16.065Z,101417.59
2022-08-19T05:31:18.075Z,101419.69
2022-08-19T05:34:22.029Z,101419.44
2022-08-19T05:37:24.080Z,101420.97
2022-08-19T05:40:26.126Z,101424.16
2022-08-19T05:43:28.893Z,101423.97
2022-08-19T05:46:30.929Z,101422.66
2022-08-19T05:49:34.571Z,101419.75
2022-08-19T05:52:38.338Z,101419.34
2022-08-19T05:55:45.842Z,101424.22
2022-08-19T05:58:47.863Z,101427.38
2022-08-19T06:01:52.150Z,101424.56
2022-08-19T06:04:54.197Z,101417.97
2022-08-19T06:07:56.765Z,101422.22
2022-08-19T06:10:58.805Z,101418.63
2022-08-19T06:14:06.783Z,101423.00
2022-08-19T06:17:08.928Z,101418.22
2022-08-19T06:20:14.527Z,101421.97
2022-08-19T06:23:17.153Z,101421.13
2022-08-19T06:26:20.789Z,101421.97
2022-08-19T06:29:26.026Z,101421.97
2022-08-19T06:32:28.059Z,101425.44
2022-08-19T06:35:30.725Z,101418.25
2022-08-19T06:38:33.076Z,101416.09
2022-08-19T06:41:41.094Z,101418.53
2022-08-19T06:44:53.538Z,101414.41
2022-08-19T06:47:55.772Z,101415.06
2022-08-19T06:50:58.449Z,101414.03
2022-08-19T06:54:01.497Z,101412.63
2022-08-19T06:57:04.612Z,101416.97
2022-08-19T07:00:12.250Z,101422.94
2022-08-19T07:03:15.108Z,101428.91
2022-08-19T07:06:43.081Z,101427.41
2022-08-19T07:09:44.163Z,101432.09
2022-08-19T07:12:56.482Z,101434.91
2022-08-19T07:15:58.493Z,101442.44
2022-08-19T07:19:00.518Z,101440.78
2022-08-19T07:22:17.722Z,101441.53
2022-08-19T07:25:19.830Z,101442.94
2022-08-19T07:28:24.809Z,101439.19
2022-08-19T07:31:28.888Z,101432.63
2022-08-19T07:34:34.105Z,101428.88
2022-08-19T07:37:37.400Z,101430.97
2022-08-19T07:40:39.450Z,101434.66
2022-08-19T07:43:41.740Z,101438.16
2022-08-19T07:46:48.258Z,101444.06
2022-08-19T07:49:52.373Z,101440.03
2022-08-19T07:52:54.508Z,101440.03
2022-08-19T07:55:57.115Z,101447.38
2022-08-19T07:58:59.149Z,101451.56
2022-08-19T08:02:01.777Z,101457.34
2022-08-19T08:05:04.035Z,101459.66
2022-08-19T08:08:06.054Z,101456.31
2022-08-19T08:11:08.482Z,101461.81
2022-08-19T08:14:28.930Z,101467.91
2022-08-19T08:17:49.024Z,101461.50
2022-08-19T08:20:52.035Z,101466.94
2022-08-19T08:23:56.070Z,101459.06
2022-08-19T08:27:00.329Z,101467.63
2022-08-19T08:30:02.900Z,101476.41
2022-08-19T08:33:05.425Z,101478.38
2022-08-19T08:36:08.527Z,101485.25
2022-08-19T08:39:11.509Z,101479.13
2022-08-19T08:42:29.189Z,101483.56
2022-08-19T08:45:33.019Z,101486.13
2022-08-19T08:48:58.765Z,101487.63
2022-08-19T08:52:12.369Z,101487.94
2022-08-19T08:55:17.746Z,101488.50
2022-08-19T08:58:29.746Z,101487.63
2022-08-19T09:01:31.829Z,101493.00
2022-08-19T09:04:36.080Z,101496.28
2022-08-19T09:07:53.153Z,101495.81
2022-08-19T09:10:56.679Z,101501.28
2022-08-19T09:14:29.178Z,101501.31
2022-08-19T09:17:34.105Z,101501.19
2022-08-19T09:20:38.390Z,101489.09
2022-08-19T09:23:45.158Z,101494.09
2022-08-19T09:26:48.450Z,101499.94
2022-08-19T09:29:56.097Z,101497.06
2022-08-19T09:32:59.608Z,101491.44
2022-08-19T09:36:09.793Z,101489.72
2022-08-19T09:39:16.146Z,101486.59
2022-08-19T09:42:29.871Z,101489.59
2022-08-19T09:45:32.872Z,101491.31
2022-08-19T09:48:34.832Z,101483.00
2022-08-19T09:51:36.880Z,101494.31
2022-08-19T09:54:40.082Z,101495.41
2022-08-19T09:57:46.252Z,101489.31
2022-08-19T10:00:51.482Z,101496.16
2022-08-19T10:03:56.936Z,101497.34
2022-08-19T10:06:58.963Z,101489.72
2022-08-19T10:10:02.211Z,101501.69
2022-08-19T10:13:04.419Z,101502.03
2022-08-19T10:16:09.883Z,101492.53
2022-08-19T10:19:12.574Z,101494.38
2022-08-19T10:22:15.656Z,101489.47
2022-08-19T10:25:17.766Z,101486.00
2022-08-19T10:28:19.797Z,101490.53
2022-08-19T10:32:01.314Z,101493.66
2022-08-19T10:34:48.486Z,101496.88
2022-08-19T10:37:57.195Z,101494.00
2022-08-19T10:41:08.095Z,101501.25
2022-08-19T10:44:13.927Z,101504.81
2022-08-19T10:47:24.484Z,101497.63
2022-08-19T10:50:28.562Z,101503.72
2022-08-19T10:53:31.005Z,101496.50
2022-08-19T10:56:34.041Z,101490.00
2022-08-19T10:59:36.363Z,101486.13
2022-08-19T11:02:38.397Z,101485.84
2022-08-19T11:05:40.804Z,101485.84
2022-08-19T11:08:42.895Z,101490.00
2022-08-19T11:11:45.606Z,101480.44
2022-08-19T11:14:47.741Z,101493.03
2022-08-19T11:17:49.843Z,101486.72
2022-08-19T11:20:53.329Z,101487.22
2022-08-19T11:23:58.452Z,101487.03
2022-08-19T11:27:07.712Z,101490.06
2022-08-19T11:30:12.884Z,101486.66
2022-08-19T11:33:15.403Z,101483.53
2022-08-19T11:36:18.096Z,101492.69
2022-08-19T11:39:22.760Z,101496.78
2022-08-19T11:42:24.822Z,101493.22
2022-08-19T11:45:28.955Z,101491.53
2022-08-19T11:48:31.017Z,101486.88
2022-08-19T11:51:33.189Z,101484.69
2022-08-19T11:54:35.325Z,101490.78
2022-08-19T11:57:37.337Z,101494.06
2022-08-19T12:00:41.119Z,101498.03
2022-08-19T12:03:47.084Z,101500.59
2022-08-19T12:06:49.401Z,101497.97
2022-08-19T12:09:51.636Z,101509.03
2022-08-19T12:12:53.832Z,101497.25
2022-08-19T12:16:01.350Z,101499.09
2022-08-19T12:19:05.567Z,101493.56
2022-08-19T12:22:07.594Z,101492.81
2022-08-19T12:25:11.603Z,101490.97
2022-08-19T12:28:13.648Z,101501.50
2022-08-19T12:31:16.188Z,101482.72
2022-08-19T12:34:18.220Z,101483.50
2022-08-19T12:37:20.235Z,101475.44
2022-08-19T12:40:22.237Z,101480.63
2022-08-19T12:43:24.297Z,101477.25
2022-08-19T12:46:26.325Z,101482.72
2022-08-19T12:49:53.094Z,101483.69
2022-08-19T12:52:51.511Z,101483.69
2022-08-19T12:55:57.842Z,101482.31
2022-08-19T12:59:02.800Z,101477.06
2022-08-19T13:02:06.870Z,101476.34
2022-08-19T13:05:11.988Z,101475.69
2022-08-19T13:08:14.021Z,101475.41
2022-08-19T13:11:18.855Z,101475.56
2022-08-19T13:14:20.880Z,101474.44
2022-08-19T13:17:22.917Z,101477.88
2022-08-19T13:20:25.706Z,101479.28
2022-08-19T13:23:27.740Z,101473.22
2022-08-19T13:26:29.846Z,101475.19
2022-08-19T13:29:31.880Z,101465.06
2022-08-19T13:32:33.941Z,101478.56
2022-08-19T13:35:42.329Z,101474.94
2022-08-19T13:38:44.353Z,101471.00
2022-08-19T13:41:47.177Z,101463.19
2022-08-19T13:44:49.221Z,101466.28
2022-08-19T13:47:58.993Z,101471.25
2022-08-19T13:51:01.670Z,101468.25
2022-08-19T13:54:03.783Z,101459.31
2022-08-19T13:57:06.493Z,101457.78
2022-08-19T14:00:12.253Z,101458.75
2022-08-19T14:03:14.497Z,101467.03
2022-08-19T14:06:16.658Z,101456.59
2022-08-19T14:09:18.686Z,101457.56
2022-08-19T14:12:28.443Z,101452.13
2022-08-19T14:15:31.432Z,101456.47
2022-08-19T14:18:33.461Z,101452.59
2022-08-19T14:21:39.725Z,101450.84
2022-08-19T14:24:48.015Z,101457.66
2022-08-19T14:27:51.307Z,101453.66
2022-08-19T14:30:55.229Z,101443.72
2022-08-19T14:33:58.740Z,101446.28
2022-08-19T14:37:00.968Z,101450.94
2022-08-19T14:40:05.372Z,101444.81
2022-08-19T14:43:07.452Z,101443.13
2022-08-19T14:46:09.464Z,101438.72
2022-08-19T14:49:12.607Z,101458.03
2022-08-19T14:52:14.635Z,101456.78
2022-08-19T14:55:18.431Z,101454.00
2022-08-19T14:58:29.843Z,101454.19
2022-08-19T15:01:32.370Z,101448.00
2022-08-19T15:04:34.402Z,101442.69
2022-08-19T15:07:37.779Z,101446.72
2022-08-19T15:10:40.288Z,101446.72
2022-08-19T15:13:43.639Z,101454.16
2022-08-19T15:16:45.652Z,101461.09
2022-08-19T15:19:47.700Z,101452.28
2022-08-19T15:22:50.713Z,101447.25
2022-08-19T15:25:52.749Z,101454.38
2022-08-19T15:28:54.881Z,101452.13
2022-08-19T15:31:56.948Z,101452.31
2022-08-19T15:35:00.829Z,101456.66
2022-08-19T15:38:03.281Z,101458.78
2022-08-19T15:41:05.514Z,101464.75
2022-08-19T15:44:11.441Z,101469.03
2022-08-19T15:47:14.088Z,101472.63
2022-08-19T15:50:20.304Z,101474.34
2022-08-19T15:53:22.336Z,101472.88
2022-08-19T15:56:27.194Z,101479.72
2022-08-19T15:59:29.609Z,101470.34
2022-08-19T16:02:32.704Z,101481.69
2022-08-19T16:05:35.762Z,101470.19
2022-08-19T16:08:49.173Z,101475.56
2022-08-19T16:11:56.742Z,101473.53
2022-08-19T16:15:01.771Z,101473.78
2022-08-19T16:18:04.134Z,101489.00
2022-08-19T16:21:06.503Z,101478.81
2022-08-19T16:24:10.224Z,101487.06
2022-08-19T16:27:12.091Z,101474.09
2022-08-19T16:30:14.045Z,101476.53
2022-08-19T16:33:22.696Z,101485.06
2022-08-19T16:36:24.856Z,101477.22
2022-08-19T16:39:27.327Z,101483.41
2022-08-19T16:42:29.365Z,101492.47
2022-08-19T16:45:31.680Z,101495.03
2022-08-19T16:48:34.432Z,101495.38
2022-08-19T16:51:37.484Z,101499.03
2022-08-19T16:54:39.517Z,101490.63
2022-08-19T16:57:41.559Z,101481.84
2022-08-19T17:00:44.578Z,101485.38
2022-08-19T17:03:46.687Z,101489.75
2022-08-19T17:06:48.765Z,101488.06
2022-08-19T17:09:50.804Z,101484.84
2022-08-19T17:12:52.987Z,101485.38
2022-08-19T17:15:56.143Z,101493.56
2022-08-19T17:19:00.196Z,101490.72
2022-08-19T17:22:02.201Z,101492.22
2022-08-19T17:25:04.460Z,101495.00
2022-08-19T17:28:19.615Z,101489.63
2022-08-19T17:31:23.994Z,101490.09
2022-08-19T17:34:26.027Z,101488.50
2022-08-19T17:37:28.063Z,101490.56
2022-08-19T17:40:30.244Z,101496.16
2022-08-19T17:43:37.826Z,101501.44
2022-08-19T17:46:42.189Z,101495.28
2022-08-19T17:49:44.203Z,101496.66
2022-08-19T17:52:46.213Z,101502.88
2022-08-19T17:55:48.261Z,101500.91
2022-08-19T17:59:00.709Z,101505.00
2022-08-19T18:02:05.646Z,101509.31
2022-08-19T18:05:08.629Z,101514.34
2022-08-19T18:08:10.790Z,101507.63
2022-08-19T18:11:13.018Z,101508.19
2022-08-19T18:14:15.038Z,101512.50
2022-08-19T18:17:17.501Z,101514.22
2022-08-19T18:20:19.745Z,101521.31
2022-08-19T18:23:44.099Z,101524.34
2022-08-19T18:26:44.329Z,101521.44
2022-08-19T18:29:47.035Z,101518.16
2022-08-19T18:32:50.706Z,101527.53
2022-08-19T18:35:52.733Z,101533.22
2022-08-19T18:38:54.996Z,101539.81
2022-08-19T18:41:57.077Z,101551.56
2022-08-19T18:45:00.020Z,101556.78
2022-08-19T18:48:02.324Z,101563.16
2022-08-19T18:51:05.113Z,101570.41
2022-08-19T18:54:07.154Z,101570.41
2022-08-19T18:57:09.170Z,101582.69
2022-08-19T19:00:14.346Z,101577.34
2022-08-19T19:03:16.378Z,101578.97
2022-08-19T19:06:21.946Z,101584.44
2022-08-19T19:09:24.873Z,101586.44
2022-08-19T19:12:26.905Z,101584.84
2022-08-19T19:15:28.905Z,101588.22
2022-08-19T19:18:31.390Z,101589.38
2022-08-19T19:21:34.702Z,101594.88
2022-08-19T19:24:37.517Z,101592.22
2022-08-19T19:27:39.526Z,101601.28
2022-08-19T19:30:41.579Z,101599.63
2022-08-19T19:33:45.789Z,101611.25
2022-08-19T19:36:49.401Z,101606.88
2022-08-19T19:39:51.488Z,101607.03
2022-08-19T19:42:53.764Z,101610.81
2022-08-19T19:45:56.229Z,101610.03
2022-08-19T19:49:00.300Z,101614.69
2022-08-19T19:52:02.499Z,101612.03
2022-08-19T19:55:05.199Z,101624.22
2022-08-19T19:58:07.367Z,101617.28
2022-08-19T20:01:09.932Z,101607.69
2022-08-19T20:04:13.564Z,101611.31
2022-08-19T20:07:15.607Z,101602.50
2022-08-19T20:10:17.687Z,101604.25
2022-08-19T20:13:19.688Z,101609.59
2022-08-19T20:16:21.739Z,101608.66
2022-08-19T20:19:28.377Z,101599.56
2022-08-19T20:22:33.852Z,101596.84
2022-08-19T20:25:38.107Z,101592.44
2022-08-19T20:28:40.349Z,101602.09
2022-08-19T20:31:57.565Z,101602.19
2022-08-19T20:35:01.902Z,101597.00
2022-08-19T20:38:04.287Z,101597.16
2022-08-19T20:41:06.987Z,101586.59
2022-08-19T20:44:09.031Z,101592.22
2022-08-19T20:47:11.112Z,101596.09
2022-08-19T20:50:13.156Z,101589.00
2022-08-19T20:53:17.604Z,101596.25
2022-08-19T20:56:19.638Z,101589.34
2022-08-19T20:59:21.981Z,101591.38
2022-08-19T21:02:23.997Z,101594.31
2022-08-19T21:05:30.428Z,101592.03
2022-08-19T21:08:32.788Z,101599.28
2022-08-19T21:11:34.829Z,101594.19
2022-08-19T21:14:41.774Z,101590.81
2022-08-19T21:17:43.794Z,101585.59
2022-08-19T21:20:46.067Z,101576.63
2022-08-19T21:23:49.678Z,101583.97
2022-08-19T21:26:51.796Z,101586.78
2022-08-19T21:29:53.809Z,101589.38
2022-08-19T21:32:56.114Z,101586.50
2022-08-19T21:35:58.727Z,101588.03
2022-08-19T21:39:00.854Z,101601.34
2022-08-19T21:42:02.909Z,101589.72
2022-08-19T21:45:06.140Z,101586.16
2022-08-19T21:48:08.172Z,101594.28
2022-08-19T21:51:10.212Z,101597.75
2022-08-19T21:54:14.143Z,101593.47
2022-08-19T21:57:16.376Z,101593.63
2022-08-19T22:00:21.513Z,101596.47
2022-08-19T22:03:23.528Z,101601.81
2022-08-19T22:06:25.691Z,101600.09
2022-08-19T22:09:27.938Z,101596.47
2022-08-19T22:12:33.897Z,101610.63
2022-08-19T22:15:35.936Z,101614.78
2022-08-19T22:18:38.121Z,101613.78
2022-08-19T22:21:41.174Z,101608.44
2022-08-19T22:24:43.403Z,101608.25
2022-08-19T22:27:45.570Z,101603.09
2022-08-19T22:30:51.091Z,101605.81
2022-08-19T22:33:53.282Z,101608.59
2022-08-19T22:36:55.841Z,101605.13
2022-08-19T22:39:58.377Z,101595.38
2022-08-19T22:43:04.389Z,101599.94
2022-08-19T22:46:06.450Z,101599.31
2022-08-19T22:49:19.511Z,101602.38
2022-08-19T22:52:21.551Z,101608.09
2022-08-19T22:55:25.034Z,101598.81
2022-08-19T22:58:28.320Z,101605.53
2022-08-19T23:01:30.888Z,101602.53
2022-08-19T23:04:33.808Z,101602.16
2022-08-19T23:07:36.729Z,101597.81
2022-08-19T23:10:39.011Z,101604.88
2022-08-19T23:13:41.715Z,101603.34
2022-08-19T23:16:47.867Z,101607.09
2022-08-19T23:19:52.736Z,101600.81
2022-08-19T23:22:55.634Z,101603.63
2022-08-19T23:25:57.704Z,101591.66
2022-08-19T23:28:59.729Z,101610.16
2022-08-19T23:32:01.805Z,101609.00
2022-08-19T23:35:04.489Z,101610.72
2022-08-19T23:38:07.714Z,101614.78
2022-08-19T23:41:11.648Z,101607.97
2022-08-19T23:44:14.991Z,101608.34
2022-08-19T23:47:17.412Z,101608.97
2022-08-19T23:50:20.312Z,101608.50
2022-08-19T23:53:22.689Z,101601.00
2022-08-19T23:56:24.687Z,101601.59
2022-08-19T23:59:26.697Z,101604.00
